New Offenburg, Missouri
Current Conditions -  °F | °C
As of 5:55 PM on Sunday 21 Dec 2014 (Local Time) from KFAM Reporting Station
Overcast Overcast  
Wind Chill: 35°   Ceiling: 3600
Heat Index: 39°   Visibility: 10mi
Dew Point: 32°   Wind: 6mph
Humidity: 75%   Direction: 90°E
Pressure: 30.04"   Gusts: NA
Location:  37.91°N, 90.2°W
Report Text: KFAM 212355Z AUTO 09005KT 10SM OVC036 04/00 A3004 RMK AO1 10060 20040 400600030 57003
Loading
Personal Weather Stations






























Interactive Weather Map New forecast layout! Learn more

10-Day Weather Forecast

Advertisements
Track Severe Weather on mobile